Tiempo atmosférico en la estación meteorológica de Adra,club Naútico, Almería (8 m.)



Fecha
DESCASC
Temp. máxima en grados centígrados (hora)
DESCASC
Temp. mínima en grados centígrados (hora)
DESCASC
Temp. media en grados centígrados
DESCASC
Racha de viento máxima en m/sg (hora)
DESCASC
Velocidad máxima media en intervalos de 10 minutos(hora)
DESCASC
Precipitaciones diarias en mm
DESCASC
Precipitaciones de 00:00 a 06:00 en mm
DESCASC
Precipitaciones de 06:00 a 12:00 en mm
DESCASC
Precipitaciones de 12:00 a 18:00 en mm
DESCASC
Precipitaciones de 18:00 a 24:00 en mm
DESCASC

Gráficas

Temp. máximas Temp. mínimas Temp. medias Precipitaciones Rachas de viento máximas Velocidades máximas media en intervalos de 10 minutos

Datos horarios

Fecha y hora oficial Temperatura (ºC) Velocidad del viento (km/h) Dirección del viento Racha (km/h) Dirección de racha Precipitación (mm) Presión (hPa) Tendencia (hPa) Humedad (%)
2020-07-08 23:00:00 24 14 Oeste 27 Oeste -- 1013.5 2.6 83
2020-07-08 22:00:00 24.1 20 Oeste 32 Sudoeste -- 1012.5 2.4 79
2020-07-08 21:00:00 24.1 23 Oeste 37 Oeste -- 1012.2 2.8 84
2020-07-08 20:00:00 24.7 21 Oeste 41 Oeste -- 1010.9 1.4 78
2020-07-08 19:00:00 27.2 21 Oeste 46 Oeste -- 1010.1 -0.7 62
2020-07-08 18:00:00 28.4 10 Sudeste 26 Sudeste -- 1009.4 -1.2 59
2020-07-08 17:00:00 28.4 9 Este 24 Sudeste -- 1009.5 -- 58
2020-07-08 16:00:00 27.7 8 Sudeste 21 Sudeste -- 1010.8 -- 62
2020-07-08 15:00:00 30.9 2 Sur 19 Sudeste -- 1010.6 -- 53
2020-07-08 14:00:00 28.7 6 Sudeste 18 Sudeste -- 1011.7 -- 61
2020-07-08 13:00:00 26.7 8 Sudeste 21 Sudeste -- 1012.5 -- 65
2020-07-08 12:00:00 29.8 4 Sudeste 17 Sudeste -- 1011.8 -- 50
2020-07-08 11:00:00 30.5 10 Este 20 Este -- 1012 -- 40
2020-07-08 10:00:00 30.3 6 Este 15 Este -- 1011.7 -- 41
2020-07-08 09:00:00 27.1 6 Este 24 Este -- 1012.1 -- 46
2020-07-08 08:00:00 27.7 6 Nordeste 24 Este -- 1011.5 -- 44
2020-07-08 07:00:00 24.5 9 Oeste 19 Este -- 1013.3 -- 61
2020-07-08 06:00:00 24.8 5 Este 14 Norte -- 1012.5 -- 52
2020-07-08 05:00:00 24.8 6 Este 13 Este -- 1012.3 -- 50
2020-07-08 04:00:00 24.7 0 Calma 8 Este -- 1013.3 -- 60
2020-07-08 03:00:00 24.8 3 Nordeste 8 Nordeste -- 1013.2 -- 59
2020-07-08 02:00:00 25.3 2 Nordeste 8 Nordeste -- 1013.5 -- 53
2020-07-08 01:00:00 23.9 3 Este 9 Este -- 1013.8 -- 82
2020-07-08 00:00:00 24.1 4 Este 7 Sudeste -- 1013.8 -- 86
2020-07-07 23:00:00 23.9 3 Sudoeste 8 Oeste -- 1013.2 -- 81
2020-07-07 22:00:00 24.5 5 Sudoeste 14 Sudoeste -- 1012.9 -- 81
2020-07-07 21:00:00 24.5 8 Sudoeste 15 Sudoeste -- 1012.7 -- 87
2020-07-07 20:00:00 24.7 8 Sudoeste 14 Sudoeste -- 1012.1 -0.6 84
2020-07-07 19:00:00 24.1 7 Sudoeste 14 Sudoeste -- 1011.8 -0.7 92
2020-07-07 18:00:00 25 6 Sudoeste 14 Sur -- 1012.3 -0.9 88
2020-07-07 17:00:00 25.4 7 Sudoeste 13 Sudoeste -- 1012.7 -0.8 83
2020-07-07 16:00:00 27.9 2 Sur 13 Sudoeste -- 1012.5 -1.1 73
2020-07-07 15:00:00 27.8 6 Sudoeste 14 Sudoeste -- 1013.2 -0.2 70
2020-07-07 14:00:00 26.9 5 Sudoeste 13 Sudoeste -- 1013.5 0.1 71
2020-07-07 13:00:00 27.4 3 Sudoeste 11 Sudoeste -- 1013.6 -0.3 66
2020-07-07 12:00:00 29.1 4 Sur 9 Sur -- 1013.4 -0.6 56
2020-07-07 11:00:00 27.5 3 Sur 10 Sudeste -- 1013.4 -0.2 66
2020-07-07 10:00:00 24.7 5 Sudeste 9 Nordeste -- 1013.9 -0.5 70
2020-07-07 09:00:00 24.9 4 Este 12 Este -- 1014 -0.1 67
2020-07-07 08:00:00 24 4 Este 12 Este -- 1013.6 -0.6 54
2020-07-07 07:00:00 22.3 0 Calma 3 Sudoeste -- 1014.4 -- 73
2020-07-07 06:00:00 22.6 0 Calma 4 Oeste -- 1014.1 -- 70
2020-07-07 05:00:00 23 0 Calma 4 Noroeste -- 1014.2 -- 60
2020-07-07 04:00:00 23.8 0 Calma 10 Nordeste -- 1014.5 -- 52
2020-07-07 03:00:00 24 3 Nordeste 7 Este -- 1014.8 -- 59
2020-07-07 02:00:00 22.4 3 Sudeste 7 Este -- 1015.1 -- 78
2020-07-07 01:00:00 23.1 0 Calma 10 Oeste -- 1015 -- 83
2020-07-07 00:00:00 23.9 3 Sudoeste 5 Sudoeste -- 1015.1 -- 78
2020-07-06 23:00:00 24.1 4 Oeste 44 Oeste -- 1014.6 -- 77
2020-07-06 22:00:00 24.7 0 Calma 9 Sudoeste -- 1014.1 -- 76
2020-07-06 21:00:00 24.6 7 Oeste 10 Sudoeste -- 1013.9 -- 72
2020-07-06 20:00:00 25.5 5 Sudoeste 14 Oeste -- 1013.6 -- 78
2020-07-06 19:00:00 27 4 Sudoeste 15 Sudoeste -- 1012.7 -- 66
2020-07-06 18:00:00 25.3 9 Sudoeste 18 Oeste -- 1013.8 -- 77
2020-07-06 17:00:00 27.3 4 Sudoeste 15 Sudoeste -- 1013.4 -- 69
2020-07-06 16:00:00 25.8 8 Sudoeste 16 Sudoeste -- 1014.3 -- 74
2020-07-06 15:00:00 25.8 10 Sudoeste 17 Sudoeste -- 1014.9 -- 70
2020-07-06 14:00:00 26.9 6 Sudoeste 12 Sudoeste -- 1015.2 -- 61
2020-07-06 13:00:00 27.7 4 Sudoeste 10 Sudoeste -- 1015 -- 61
2020-07-06 12:00:00 27.2 3 Sudoeste 8 Sur -- 1015 -- 60
2020-07-06 11:00:00 24.7 5 Sudeste 6 Sudeste -- 1015.2 -- 72
2020-07-06 10:00:00 25.3 3 Sudeste 5 Sur -- 1015.2 -- 67
2020-07-06 09:00:00 26.5 0 Calma 5 Sudoeste -- 1014.8 -- 58
2020-07-06 08:00:00 23.2 0 Calma 6 Este -- 1015.2 -- 70
2020-07-06 07:00:00 21.6 0 Calma 4 Norte -- 1015.7 -- 73
2020-07-06 06:00:00 21.8 0 Calma 3 Sudeste -- 1015.6 -- 77
2020-07-06 05:00:00 21.8 0 Calma 5 Sudoeste -- 1016 -- 78
2020-07-06 04:00:00 22.3 4 Sudoeste 6 Oeste -- 1016.3 -- 75
2020-07-06 03:00:00 22.2 0 Calma 10 Oeste -- 1016.9 -- 83
2020-07-06 02:00:00 23.1 6 Oeste 9 Oeste -- 1017.4 -- 79
2020-07-06 01:00:00 24 2 Noroeste 11 Oeste -- 1017.4 -- 67
2020-07-06 00:00:00 23.7 6 Oeste 9 Oeste -- 1017.6 -- 72
2020-07-05 23:00:00 23.7 4 Oeste 15 Sudoeste -- 1017.3 -- 73
2020-07-05 22:00:00 23.3 11 Oeste 20 Oeste -- 1017 -- 82
2020-07-05 21:00:00 24.4 13 Oeste 21 Oeste -- 1016.5 -- 75
2020-07-05 20:00:00 26 8 Sudoeste 13 Sudoeste -- 1015.4 -- 61
2020-07-05 19:00:00 25.9 8 Sudeste 17 Sudeste -- 1015.2 -- 60
2020-07-05 18:00:00 28.6 3 Sur 15 Sudeste -- 1014.4 -- 55
2020-07-05 17:00:00 27.6 4 Sudeste 19 Este -- 1015.4 -- 57
2020-07-05 16:00:00 26.6 10 Sudeste 24 Sudeste -- 1015.9 -- 61
2020-07-05 15:00:00 26.3 11 Sudeste 24 Sudeste -- 1016.4 -- 59
2020-07-05 14:00:00 26.6 12 Sudeste 22 Sudeste -- 1017.3 -- 56
2020-07-05 13:00:00 26.1 10 Sudeste 21 Sudeste -- 1017.6 -- 56
2020-07-05 12:00:00 27.4 7 Sudoeste 12 Oeste -- 1017.5 -- 52
2020-07-05 11:00:00 28.8 3 Sudoeste 6 Sur -- 1017 -- 45
2020-07-05 10:00:00 27.6 2 Sudoeste 6 Sudoeste -- 1017.3 -- 50
2020-07-05 09:00:00 27.1 0 Calma 4 Sudeste -- 1016.9 -- 57
2020-07-05 08:00:00 23.7 3 Oeste 5 Oeste -- 1017.6 -- 64
2020-07-05 07:00:00 23.2 3 Este 9 Este -- 1017.4 -- 57
2020-07-05 06:00:00 21.8 3 Norte 6 Oeste -- 1017.6 -- 86
2020-07-05 05:00:00 22.4 5 Oeste 11 Oeste -- 1017.6 -- 86
2020-07-05 04:00:00 22.5 2 Norte 10 Oeste -- 1017.8 -- 86
2020-07-05 03:00:00 22.4 0 Calma 9 Oeste -- 1018.5 -- 89
2020-07-05 02:00:00 22.4 6 Oeste 8 Oeste -- 1019 -- 90
2020-07-05 01:00:00 22.8 0 Calma 7 Oeste -- 1018.9 -- 91
2020-07-05 00:00:00 22.8 6 Oeste 10 Sudoeste -- 1019.1 -- 91
2020-07-04 23:00:00 23.1 5 Sudoeste 10 Sudoeste -- 1018.9 -- 89
2020-07-04 22:00:00 23.6 6 Sudoeste 11 Sudoeste -- 1018.1 -- 84
2020-07-04 21:00:00 24.7 5 Sudoeste 11 Sudoeste -- 1017.6 -- 74
2020-07-04 20:00:00 25.5 4 Sur 9 Sur -- 1016.9 -- 68
2020-07-04 19:00:00 26.1 4 Sudeste 11 Sudoeste -- 1017 -- 67
2020-07-04 18:00:00 27.3 2 Sur 12 Sur -- 1017 -- 63
2020-07-04 17:00:00 26.4 4 Sudeste 9 Sudeste -- 1017.5 -- 66
2020-07-04 16:00:00 26 5 Sudeste 10 Sudeste -- 1017.9 -- 71
2020-07-04 15:00:00 27 2 Sudeste 12 Sudeste -- 1018.3 -- 69
2020-07-04 14:00:00 26.5 3 Sudeste 10 Sudeste -- 1019.2 -- 68
2020-07-04 13:00:00 26.7 3 Sur 9 Sudeste -- 1018.9 -- 69
2020-07-04 12:00:00 25.9 0 Calma 12 Sudeste -- 1019.3 -- 77
2020-07-04 11:00:00 25.4 0 Calma 10 Sur -- 1019.6 -- 76
2020-07-04 10:00:00 26.6 3 Sur 8 Sur -- 1018.8 -- 68
2020-07-04 09:00:00 24 6 Oeste 12 Oeste -- 1019.1 -- 82
2020-07-04 08:00:00 22.5 6 Oeste 9 Oeste -- 1018.9 -- 90
2020-07-04 07:00:00 21.8 4 Oeste 5 Sudoeste -- 1018.8 -- 94
2020-07-04 06:00:00 22 0 Calma 4 Sudeste -- 1018.1 -- 94
2020-07-04 05:00:00 22.5 2 Oeste 6 Este -- 1017.9 -- 95
2020-07-04 04:00:00 22.7 0 Calma 6 Este -- 1018.2 -- 95
2020-07-04 03:00:00 22.4 3 Sudeste 5 Sudeste -- 1018.7 -- 95
2020-07-04 02:00:00 23.2 0 Calma 6 Norte -- 1018.8 -- 93
2020-07-04 01:00:00 23.8 2 Norte 12 Este -- 1019.3 -- 93
2020-07-04 00:00:00 23.9 3 Sudeste 9 Sudeste -- 1019.3 -- 92
2020-07-03 23:00:00 24.4 3 Este 9 Sudeste -- 1018.1 -- 86
2020-07-03 22:00:00 25 3 Este 10 Sudeste -- 1017 -- 79
2020-07-03 21:00:00 25.6 3 Sudeste 14 Este -- 1016 -- 76
2020-07-03 20:00:00 25.6 6 Sudeste 10 Sudeste -- 1015.4 -- 76
2020-07-03 19:00:00 26.5 5 Sudeste 10 Sudeste -- 1015.3 -- 71
2020-07-03 18:00:00 26.8 3 Sudeste 9 Nordeste -- 1015.2 -- 71
2020-07-03 17:00:00 27.2 3 Este 10 Sudeste -- 1015.6 -- 71
2020-07-03 16:00:00 27.7 3 Sur 11 Sur -- 1015.6 -- 69
2020-07-03 15:00:00 26.7 2 Sur 10 Sudeste -- 1015.9 -- 72
2020-07-03 14:00:00 26.9 2 Sudeste 11 Sudeste -- 1016.2 -- 72
2020-07-03 13:00:00 25.9 0 Calma 15 Nordeste -- 1016.6 -- 74
2020-07-03 12:00:00 26.2 0 Calma 13 Nordeste -- 1015.8 -- 76
2020-07-03 11:00:00 24.3 0 Calma 14 Sudeste -- 1015.6 -- 79
2020-07-03 10:00:00 22.7 5 Este 18 Este -- 1015.5 -- 83
2020-07-03 09:00:00 23.6 10 Este 23 Este -- 1014.7 -- 82
2020-07-03 08:00:00 24.4 8 Este 22 Nordeste -- 1013.8 -- 67
2020-07-03 07:00:00 23.1 8 Este 19 Nordeste -- 1013.5 -- 77
2020-07-03 06:00:00 20.9 2 Este 9 Este -- 1013.2 -- 86
2020-07-03 05:00:00 21.4 7 Este 11 Este -- 1012.8 -- 79
2020-07-03 04:00:00 21.7 4 Este 11 Este -- 1013 -- 83
2020-07-03 03:00:00 21.7 5 Este 10 Sudeste -- 1013.1 -- 83
2020-07-03 02:00:00 21.5 0 Calma 8 Este -- 1013.5 -- 83
2020-07-03 01:00:00 22 6 Este 16 Oeste -- 1013.9 -- 82
2020-07-03 00:00:00 22.4 10 Oeste 16 Oeste -- 1012.9 -- 78
2020-07-02 23:00:00 22.7 9 Oeste 28 Oeste -- 1011.9 -- 76
2020-07-02 22:00:00 23.7 18 Oeste 31 Oeste -- 1010.9 -- 68
2020-07-02 21:00:00 24.3 21 Oeste 38 Sudoeste -- 1010.1 -- 68
2020-07-02 20:00:00 24.9 22 Oeste 36 Oeste -- 1009.5 -- 65
2020-07-02 19:00:00 25.9 18 Sudoeste 40 Oeste -- 1009.7 -- 58
2020-07-02 18:00:00 27.9 20 Oeste 35 Oeste -- 1009.6 -- 48
2020-07-02 17:00:00 26.5 15 Oeste 30 Sudoeste -- 1010 -- 60
2020-07-02 16:00:00 25.3 17 Oeste 29 Sudoeste -- 1010.8 -- 67
2020-07-02 15:00:00 25.7 11 Sudoeste 26 Oeste -- 1011.3 -- 66
2020-07-02 14:00:00 24.3 14 Oeste 26 Oeste -- 1012.1 -- 77
2020-07-02 13:00:00 23.6 15 Oeste 24 Oeste -- 1012.3 -- 82
2020-07-02 12:00:00 24.5 9 Sudoeste 15 Sudoeste -- 1012 -- 77
2020-07-02 11:00:00 25.1 4 Sudoeste 11 Oeste -- 1011.7 -- 74
2020-07-02 10:00:00 25.2 3 Sudoeste 9 Sudoeste -- 1011.6 -- 75
2020-07-02 09:00:00 22.9 3 Sudeste 8 Sudeste -- 1011.9 -- 86
2020-07-02 08:00:00 21.9 3 Sudeste 9 Este -- 1011.8 -- 87
2020-07-02 07:00:00 22.4 5 Este 12 Este -- 1011.7 -- 81
2020-07-02 06:00:00 23.1 3 Oeste 9 Norte -- 1010.8 -- 73
2020-07-02 05:00:00 21.4 2 Norte 13 Oeste -- 1010.8 -- 83
2020-07-02 04:00:00 22.1 7 Oeste 11 Oeste -- 1011.1 -- 83
2020-07-02 03:00:00 21.5 2 Norte 7 Oeste -- 1011.4 -- 84
2020-07-02 02:00:00 22.4 4 Sudoeste 12 Oeste -- 1011.9 -- 81
2020-07-02 01:00:00 22.5 2 Oeste 14 Sudoeste -- 1012.3 -- 86
2020-07-02 00:00:00 22.6 9 Oeste 15 Oeste -- 1012.1 -- 87
2020-07-01 23:00:00 22.8 5 Oeste 19 Oeste -- 1011.2 -- 84
2020-07-01 22:00:00 23.2 16 Oeste 23 Oeste -- 1010.7 -- 75
2020-07-01 21:00:00 24.2 14 Sudoeste 32 Oeste -- 1010.1 -- 68
2020-07-01 20:00:00 25 22 Oeste 34 Oeste -- 1009.4 -- 63
2020-07-01 19:00:00 26.8 21 Oeste 32 Oeste -- 1009.4 -- 51
2020-07-01 18:00:00 24.9 18 Oeste 29 Oeste -- 1009.9 -- 66
2020-07-01 17:00:00 24.5 18 Oeste 29 Oeste -- 1010.2 -- 70
2020-07-01 16:00:00 24.2 15 Oeste 27 Sudoeste -- 1010.9 -- 78
2020-07-01 15:00:00 23.4 15 Oeste 24 Oeste -- 1011.6 -- 83
2020-07-01 14:00:00 23.5 15 Oeste 25 Sudoeste -- 1012.4 -- 84
2020-07-01 13:00:00 23.8 12 Sudoeste 20 Sudoeste -- 1012.4 -- 78
2020-07-01 12:00:00 23.9 10 Sudoeste 20 Sudoeste -- 1012.6 -- 81
2020-07-01 11:00:00 22.7 11 Sudoeste 21 Sudoeste -- 1012.4 -- 83
2020-07-01 10:00:00 22.3 12 Sudoeste 37 Oeste -- 1012.6 -- 86
2020-07-01 09:00:00 21.4 15 Oeste 24 Oeste -- 1012.7 -- 91
2020-07-01 08:00:00 20.9 14 Oeste 23 Oeste -- 1012.6 -- 95
2020-07-01 07:00:00 21 14 Oeste 21 Oeste -- 1012.1 -- 94
2020-07-01 06:00:00 21.5 8 Oeste 12 Oeste -- 1011.5 -- 93
2020-07-01 05:00:00 21.5 4 Oeste 11 Oeste -- 1011.4 -- 93
2020-07-01 04:00:00 21.5 8 Oeste 12 Oeste -- 1011.6 -- 93
2020-07-01 03:00:00 22.2 3 Oeste 8 Sudeste -- 1011.9 -- 92
2020-07-01 02:00:00 22.3 4 Sudoeste 15 Sudoeste -- 1012.6 -- 92
2020-07-01 01:00:00 22.4 7 Oeste 15 Oeste -- 1012.8 -- 91
2020-07-01 00:00:00 22.8 10 Oeste 17 Oeste -- 1012.7 -- 89
2020-06-30 23:00:00 22.9 9 Oeste 16 Oeste -- 1012.6 -- 89
2020-06-30 22:00:00 23.1 10 Oeste 20 Oeste -- 1012 -- 88
2020-06-30 21:00:00 23.3 13 Oeste 23 Oeste -- 1011.3 -- 87
2020-06-30 20:00:00 23.8 15 Oeste 25 Oeste -- 1010.5 -- 83
2020-06-30 19:00:00 24 15 Oeste 26 Oeste -- 1010.3 -- 83
2020-06-30 18:00:00 23.9 18 Oeste 26 Sudoeste -- 1010.9 -- 85
2020-06-30 17:00:00 24.6 14 Oeste 22 Oeste -- 1010.7 -- 80
2020-06-30 16:00:00 24.4 16 Oeste 26 Sudoeste -- 1011.6 -- 81
2020-06-30 15:00:00 24.9 14 Sudoeste 27 Oeste -- 1011.7 -- 77
2020-06-30 14:00:00 24.6 14 Oeste 21 Oeste -- 1012.1 -- 76
2020-06-30 13:00:00 24 13 Oeste 21 Oeste -- 1012.7 -- 78
2020-06-30 12:00:00 23.7 12 Oeste 19 Oeste -- 1012.5 -- 85
2020-06-30 11:00:00 22.6 11 Sudoeste 18 Oeste -- 1012.5 -- 91
2020-06-30 10:00:00 22 9 Sudoeste 15 Oeste -- 1012.1 -- 95
2020-06-30 09:00:00 21.6 4 Sudoeste 15 Sudoeste -- 1012.5 -- 97
2020-06-30 08:00:00 22 11 Oeste 17 Oeste -- 1012.2 -- 94
2020-06-30 07:00:00 22.3 0 Calma 8 Este -- 1011.2 -- 88
2020-06-30 06:00:00 21.4 4 Este 22 Oeste -- 1011.3 -- 94
2020-06-30 05:00:00 22 12 Oeste 19 Sudoeste -- 1011.5 -- 94
2020-06-30 04:00:00 22.1 6 Oeste 12 Sudoeste -- 1011.3 -- 94
2020-06-30 03:00:00 21.7 5 Oeste 12 Sudoeste -- 1011.7 -- 94
2020-06-30 02:00:00 22.1 4 Oeste 8 Oeste -- 1012.4 -- 94
2020-06-30 01:00:00 22.3 0 Calma 8 Sudeste -- 1013.2 -- 93
2020-06-30 00:00:00 22.6 2 Sudeste 5 Sur -- 1013.8 -- 93
2020-06-29 23:00:00 22.8 4 Sudeste 5 Sudeste -- 1014.3 -- 92
2020-06-29 22:00:00 23.1 0 Calma 6 Sudoeste -- 1013.8 -- 87
2020-06-29 21:00:00 24.6 4 Sur 12 Sudoeste -- 1013.1 -- 79
2020-06-29 20:00:00 26.1 3 Sur 12 Sudoeste -- 1011.9 -- 76
2020-06-29 19:00:00 24.5 7 Sudeste 10 Sur -- 1011.7 -- 76
2020-06-29 18:00:00 27.7 5 Sudoeste 15 Sudoeste -- 1011.6 -- 58
2020-06-29 17:00:00 26.2 8 Sudoeste 14 Sudoeste -- 1013 -- 63
2020-06-29 16:00:00 28.3 3 Sudoeste 12 Sudoeste -- 1012.6 -- 58
2020-06-29 15:00:00 27 4 Sudoeste 12 Sudoeste -- 1013.5 -- 63
2020-06-29 14:00:00 26.7 4 Sudoeste 10 Sudoeste -- 1014.4 -- 67
2020-06-29 13:00:00 24.9 7 Sur 10 Sur -- 1015.3 -- 72
2020-06-29 12:00:00 26.3 3 Sudeste 8 Sudeste -- 1014.9 -- 47
2020-06-29 11:00:00 27.3 2 Sudeste 9 Sudeste -- 1014.4 -- 49
2020-06-29 10:00:00 23.5 6 Sudeste 10 Sudeste -- 1015.4 -- 71
2020-06-29 09:00:00 23.6 5 Sudeste 7 Sudeste -- 1015.3 -- 66
2020-06-29 08:00:00 23.6 0 Calma 11 Oeste -- 1014.7 -- 65
2020-06-29 07:00:00 22 7 Sudoeste 11 Sudoeste -- 1014.8 -- 65
2020-06-29 06:00:00 22.2 3 Norte 6 Norte -- 1014.2 -- 55
2020-06-29 05:00:00 22.5 3 Noroeste 12 Sudoeste -- 1014.3 -- 56
2020-06-29 04:00:00 22.3 0 Calma 6 Este -- 1014.8 -- 62
2020-06-29 03:00:00 22.7 0 Calma 9 Sudoeste -- 1015.2 -- 61
2020-06-29 02:00:00 23.3 2 Noroeste 8 Norte -- 1016 -- 60
2020-06-29 01:00:00 23.1 2 Sudoeste 6 Sudeste -- 1016.7 -- 66
2020-06-29 00:00:00 23.6 3 Sudeste 8 Sudeste -- 1016.5 -- 62
2020-06-28 23:00:00 24 4 Este 7 Este -- 1016 -- 61
2020-06-28 22:00:00 23.6 0 Calma 4 Sudeste -- 1015.4 -- 72
2020-06-28 21:00:00 24.4 3 Sudeste 8 Sudoeste -- 1014.5 -- 63
2020-06-28 20:00:00 26.4 3 Sur 6 Sudeste -- 1013.3 -- 62
2020-06-28 19:00:00 25.5 5 Sudeste 8 Sur -- 1014.1 -- 57
2020-06-28 18:00:00 26.1 4 Sur 9 Sur -- 1014.2 -- 58
2020-06-28 17:00:00 24.5 6 Sudeste 11 Sudeste -- 1014.9 -- 73
2020-06-28 16:00:00 24.4 5 Sudeste 11 Sur -- 1014.5 -1.1 73
2020-06-28 15:00:00 24.7 5 Sudeste 9 Sur -- 1015.1 -- 71
2020-06-28 14:00:00 27 4 Sudoeste 13 Sudoeste -- 1015 -- 67
2020-06-28 13:00:00 26.8 3 Sur 8 Sudoeste -- 1015.6 -- 62
2020-06-28 12:00:00 24.8 0 Calma 6 Sudeste -- 1015.7 -- 71
2020-06-28 11:00:00 21.8 4 Sudeste 11 Sudeste -- 1016.2 -- 88
2020-06-28 10:00:00 21.9 6 Sudeste 11 Sudeste -- 1016.2 -- 86
2020-06-28 09:00:00 21.2 6 Sudeste 10 Sudeste -- 1015.9 -- 89
2020-06-28 08:00:00 20.7 3 Este 8 Este -- 1015.6 -- 86
2020-06-28 07:00:00 20.7 0 Calma 8 Este -- 1015.5 -- 86
2020-06-28 06:00:00 20 0 Calma 5 Este -- 1015.2 -- 88
2020-06-28 05:00:00 19.3 0 Calma 4 Norte -- 1014.9 -- 92
2020-06-28 04:00:00 20.4 0 Calma 6 Oeste -- 1015.2 -- 95
2020-06-28 03:00:00 20.7 0 Calma 4 Sudeste -- 1015.3 -- 95
2020-06-28 02:00:00 20.9 2 Sudeste 8 Sudeste -- 1015.8 -- 95
2020-06-28 01:00:00 21.1 4 Este 8 Este -- 1016 -- 95
2020-06-28 00:00:00 21.3 4 Sudoeste 7 Sudoeste -- 1015.9 -- 94
2020-06-27 23:00:00 21.7 2 Sur 5 Sudoeste -- 1015.5 -- 91
2020-06-27 22:00:00 22 0 Calma 6 Sudeste -- 1014.3 -- 88
2020-06-27 21:00:00 22.7 3 Sur 8 Sudeste -- 1013.3 -- 82
2020-06-27 20:00:00 23.1 6 Sudeste 11 Sur -- 1013.2 -- 77
2020-06-27 19:00:00 25.7 5 Sudoeste 19 Oeste -- 1012 -- 66
2020-06-27 18:00:00 23 13 Sudoeste 20 Sudoeste -- 1013.6 -- 78
2020-06-27 17:00:00 23.8 10 Sudoeste 19 Sudoeste -- 1013.2 -- 78
2020-06-27 16:00:00 24 10 Sudoeste 18 Sudoeste -- 1013.8 -- 82
2020-06-27 15:00:00 24 10 Sudoeste 16 Sudoeste -- 1013.8 -- 79
2020-06-27 14:00:00 23.9 7 Sudoeste 14 Sudoeste -- 1014.3 -- 77
2020-06-27 13:00:00 24.6 5 Sudoeste 11 Sudoeste -- 1014.4 -- 75
2020-06-27 12:00:00 23.9 5 Sudoeste 11 Sur -- 1014.9 -- 77
2020-06-27 11:00:00 24 4 Sudoeste 8 Sudoeste -- 1014.6 -- 77
2020-06-27 10:00:00 22.9 2 Sudeste 9 Sudeste -- 1014.4 -- 86
2020-06-27 09:00:00 23.9 0 Calma 4 Sur -- 1014.2 -- 77
2020-06-27 08:00:00 21.2 0 Calma 5 Norte -- 1014.1 -- 87
2020-06-27 07:00:00 19.5 2 Oeste 5 Oeste -- 1014.2 -- 91
2020-06-27 06:00:00 20.1 0 Calma 4 Norte -- 1013.8 -- 90
2020-06-27 05:00:00 20.1 0 Calma 9 Este -- 1013.5 -- 91
2020-06-27 04:00:00 20.6 5 Este 10 Este -- 1013.3 -- 91
2020-06-27 03:00:00 20.8 6 Este 18 Nordeste -- 1013.4 -- 90
2020-06-27 02:00:00 21.1 5 Este 12 Este -- 1013.3 -- 91
2020-06-27 01:00:00 21.1 3 Sudeste 13 Este -- 1013.5 -- 90
2020-06-27 00:00:00 21.4 0 Calma 11 Oeste -- 1013.5 -- 89
2020-06-26 23:00:00 21.9 9 Oeste 14 Oeste -- 1012.7 -- 87
2020-06-26 22:00:00 22.1 9 Oeste 27 Sudoeste -- 1012.1 -- 86
2020-06-26 21:00:00 21.8 22 Oeste 33 Oeste -- 1011.5 -- 84
2020-06-26 20:00:00 22.4 18 Oeste 34 Oeste -- 1011.2 -- 85
2020-06-26 19:00:00 21.9 26 Oeste 37 Oeste -- 1011.2 -- 86
2020-06-26 18:00:00 22.8 18 Sudoeste 33 Sudoeste -- 1012.1 -- 79
2020-06-26 17:00:00 22.8 15 Sudoeste 30 Sudoeste -- 1012.9 -- 81
2020-06-26 16:00:00 22.4 19 Sudoeste 29 Sudoeste -- 1013.5 -- 81
2020-06-26 15:00:00 23.3 12 Sudoeste 22 Sudoeste -- 1013.6 -- 79
2020-06-26 14:00:00 24 6 Sudoeste 17 Sudoeste -- 1014 -- 78
2020-06-26 13:00:00 23.6 8 Sudoeste 14 Sudoeste -- 1014.4 -- 76
2020-06-26 12:00:00 22.8 7 Sudeste 13 Sur -- 1014.2 -- 84
2020-06-26 11:00:00 23.2 6 Sur 9 Sur -- 1013.9 -- 81
2020-06-26 10:00:00 22.7 5 Sudeste 10 Sudeste -- 1014.1 -- 79
2020-06-26 09:00:00 22.8 3 Sudeste 7 Este -- 1014.2 -- 81
2020-06-26 08:00:00 21.3 0 Calma 7 Sudeste -- 1014.3 -- 89
2020-06-26 07:00:00 19.8 0 Calma 9 Oeste -- 1014.2 -- 91
2020-06-26 06:00:00 20.4 4 Oeste 7 Oeste -- 1014 -- 89
2020-06-26 05:00:00 21 5 Oeste 10 Este -- 1013.7 -- 87
2020-06-26 04:00:00 20.7 2 Sudeste 8 Sudoeste -- 1013.7 -- 92
2020-06-26 03:00:00 20.6 5 Oeste 9 Sudeste -- 1014.2 -- 92
2020-06-26 02:00:00 21.2 4 Este -- -- -- 1014.9 -- 91
2020-06-26 01:00:00 21 3 Sudeste 5 Este -- 1015 -- 92
2020-06-26 00:00:00 21.2 0 Calma 10 Sudoeste -- 1015.3 -- 88
2020-06-25 23:00:00 21.9 8 Oeste 16 Oeste -- 1015 -- 83
2020-06-25 22:00:00 21.8 11 Oeste 22 Oeste -- 1013.9 -- 84
2020-06-25 21:00:00 22.2 15 Oeste 24 Oeste -- 1013.3 -- 82
2020-06-25 20:00:00 22.4 16 Oeste 27 Sudoeste -- 1012.7 -- 81
2020-06-25 19:00:00 22.8 18 Oeste 32 Oeste -- 1012.3 -- 79
2020-06-25 18:00:00 22.8 21 Oeste 32 Oeste -- 1012.7 -- 78
2020-06-25 17:00:00 22.9 19 Oeste 29 Sudoeste -- 1012.9 -- 77
2020-06-25 16:00:00 23 17 Oeste 27 Sudoeste -- 1012.9 -- 78
2020-06-25 15:00:00 22.7 16 Oeste 26 Oeste -- 1013.8 -- 79
2020-06-25 14:00:00 23 15 Oeste 30 Oeste -- 1014.3 -- 81
2020-06-25 13:00:00 22.4 16 Oeste 26 Oeste -- 1014.6 -- 82
2020-06-25 12:00:00 22.1 16 Oeste 23 Oeste -- 1014.6 -- 81
2020-06-25 11:00:00 22.5 8 Sudoeste 15 Oeste -- 1013.9 -- 76
2020-06-25 10:00:00 22.5 6 Sudoeste 11 Sudoeste -- 1013.8 -- 74
2020-06-25 09:00:00 22 5 Sudoeste 8 Sudoeste -- 1013.6 -- 77
2020-06-25 08:00:00 21.1 0 Calma 5 Oeste -- 1013.5 -- 84
2020-06-25 07:00:00 20.1 0 Calma 9 Oeste -- 1013.7 -- 81
2020-06-25 06:00:00 20.5 5 Oeste 8 Sudoeste -- 1013.6 -- 82
2020-06-25 05:00:00 21.2 0 Calma 9 Oeste -- 1013.4 -- 73
2020-06-25 04:00:00 21 4 Sudoeste 15 Oeste -- 1014 -- 77
2020-06-25 03:00:00 21.3 10 Oeste 22 Oeste -- 1014.9 -- 78
2020-06-25 02:00:00 21.9 9 Oeste 21 Oeste -- 1015 -- 72
2020-06-25 01:00:00 22.2 14 Oeste 21 Oeste -- 1014.9 -- 72
2020-06-25 00:00:00 21.7 8 Oeste 15 Oeste -- 1015 -- 76
2020-06-24 23:00:00 21.2 10 Oeste 18 Noroeste -- 1015.4 -- 84
2020-06-24 22:00:00 21.8 12 Oeste 19 Oeste -- 1014.3 -- 77
2020-06-24 21:00:00 22.2 12 Oeste 23 Oeste -- 1013.7 -- 76
2020-06-24 20:00:00 22.7 14 Oeste 23 Sudoeste -- 1013.1 -- 72
2020-06-24 19:00:00 22.7 12 Oeste 24 Oeste -- 1013 -- 78
2020-06-24 18:00:00 24.2 15 Oeste 24 Sudoeste -- 1012.7 -- 65
2020-06-24 17:00:00 25.3 9 Sudoeste 18 Sudoeste -- 1012.6 -- 61
2020-06-24 16:00:00 25.1 9 Sudoeste 16 Sudoeste -- 1013.6 -- 60
2020-06-24 15:00:00 24.5 9 Sudoeste 13 Sudoeste -- 1014.3 -- 63
2020-06-24 14:00:00 26.7 2 Sur 15 Oeste -- 1014.1 -- 61
2020-06-24 13:00:00 23.2 11 Sudoeste 23 Oeste -- 1015 -- 73
2020-06-24 12:00:00 23.4 14 Sudoeste 40 Oeste -- 1014.7 -- 70
2020-06-24 11:00:00 21.7 24 Oeste 43 Oeste -- 1013.9 -- 81
2020-06-24 10:00:00 24.5 17 Oeste 49 Oeste -- 1013 -- 59
2020-06-24 09:00:00 28 17 Norte 37 Norte -- 1010.3 -- 44
2020-06-24 08:00:00 22.6 5 Nordeste 49 Oeste -- 1013.9 -- 72
2020-06-24 07:00:00 22.5 28 Oeste 55 Oeste -- 1014.9 -- 68
2020-06-24 06:00:00 21 6 Oeste 36 Sudoeste -- 1015.4 -- 87
2020-06-24 05:00:00 21.2 28 Oeste 42 Oeste -- 1014.4 -- 82
2020-06-24 04:00:00 21.6 4 Oeste 33 Oeste -- 1013 -- 78
2020-06-24 03:00:00 22 17 Oeste 32 Oeste -- 1012.4 -- 75
2020-06-24 02:00:00 21.4 13 Oeste 32 Oeste -- 1013.8 -- 78
2020-06-24 01:00:00 22.8 3 Noroeste 20 Oeste -- 1013.5 -- 72
2020-06-24 00:00:00 22.8 7 Sudoeste 15 Oeste -- 1014.3 -- 70
2020-06-23 23:00:00 24.9 3 Este 30 Oeste -- 1014.1 -- 62
2020-06-23 22:00:00 23.8 14 Oeste 39 Oeste -- 1013.4 -- 66
2020-06-23 21:00:00 24.4 20 Oeste 36 Oeste -- 1011.9 -- 63
2020-06-23 20:00:00 26.3 15 Sudoeste 37 Este -- 1010.8 -- 49
2020-06-23 19:00:00 30.6 16 Este 41 Este -- 1008.9 -- 36
2020-06-23 18:00:00 31.7 19 Este 43 Este -- 1009.4 -- 34
2020-06-23 17:00:00 31.4 17 Sudeste 42 Este -- 1010.2 -- 34
2020-06-23 16:00:00 32 18 Este 42 Sudeste -- 1010.1 -- 34
2020-06-23 15:00:00 31.7 19 Este 36 Sudeste -- 1010.8 -- 35
2020-06-23 14:00:00 31.5 15 Este 40 Sudeste -- 1011.4 -- 33
2020-06-23 13:00:00 31.7 14 Este 32 Sudeste -- 1011.5 -- 31
2020-06-23 12:00:00 33.8 14 Este 37 Este -- 1011.4 -- 27
2020-06-23 11:00:00 33.3 13 Este 30 Este -- 1011.7 -- 25
2020-06-23 10:00:00 32.7 7 Este 26 Este -- 1012 -- 27
2020-06-23 09:00:00 30.4 9 Nordeste 21 Norte -- 1012.1 -- 29
2020-06-23 08:00:00 28.4 10 Norte 23 Norte -- 1012.7 -- 32
2020-06-23 07:00:00 27.3 10 Norte 23 Nordeste -- 1013 -- 37
2020-06-23 06:00:00 21 0 Calma 7 Oeste -- 1014.7 -- 82
2020-06-23 05:00:00 20.6 2 Oeste 11 Oeste -- 1014.8 -- 86
2020-06-23 04:00:00 21.5 0 Calma 4 Este -- 1014.9 -- 80
2020-06-23 03:00:00 21.9 0 Calma 18 Oeste -- 1015.2 -- 77
2020-06-23 02:00:00 22.2 8 Oeste 19 Oeste -- 1015.5 -- 73
2020-06-23 01:00:00 24.6 3 Oeste 16 Oeste -- 1015.1 -- 53
2020-06-23 00:00:00 26 7 Este 16 Este -- 1014.8 -- 48
2020-06-22 23:00:00 26.5 9 Este 18 Este -- 1014.5 -- 46
2020-06-22 22:00:00 26.7 8 Este 25 Este -- 1014.1 -- 46
2020-06-22 21:00:00 28.3 7 Este 28 Este -- 1013.5 -- 43
2020-06-22 20:00:00 30 14 Este 33 Este -- 1013.2 -- 39
2020-06-22 19:00:00 28.9 11 Sudeste 24 Sudeste -- 1013.5 -- 45
2020-06-22 18:00:00 25.9 8 Este 29 Sudeste -- 1014.7 -- 53
2020-06-22 17:00:00 26.1 17 Sudeste 28 Este -- 1015.2 -- 52
2020-06-22 16:00:00 24.8 18 Sudeste 31 Sudeste -- 1016.4 -- 54
2020-06-22 15:00:00 26.8 3 Nordeste 21 Este -- 1016.3 -- 49
2020-06-22 14:00:00 29.2 8 Sudeste 22 Este -- 1017.2 -- 38
2020-06-22 13:00:00 27.5 8 Sudeste 16 Sudeste -- 1017.6 -- 45
2020-06-22 12:00:00 27.4 8 Sudeste 26 Este -- 1018 -- 46
2020-06-22 11:00:00 29 10 Sudeste 19 Este -- 1017.7 -- 39
2020-06-22 10:00:00 25.2 6 Sudeste 14 Este -- 1018.6 -- 51
2020-06-22 09:00:00 25.9 4 Este 9 Este -- 1018.3 -- 43
2020-06-22 08:00:00 22.3 5 Este 11 Este -- 1018.8 -- 46
2020-06-22 07:00:00 21.1 3 Norte 8 Este -- 1018.9 -- 72
2020-06-22 06:00:00 20.9 5 Este 11 Este -- 1018.8 -- 75
2020-06-22 05:00:00 21.1 5 Este 9 Este -- 1018.8 -- 76
2020-06-22 04:00:00 20.9 0 Calma 8 Sudoeste -- 1019 -- 77
2020-06-22 03:00:00 21.5 4 Nordeste 10 Este -- 1018.7 -- 65
2020-06-22 02:00:00 21.9 5 Este 10 Este -- 1019.2 -- 76
2020-06-22 01:00:00 21.4 0 Calma 5 Sudoeste -- 1019.4 -- 76
2020-06-22 00:00:00 21.7 3 Oeste 7 Sudoeste -- 1019.2 -- 73
2020-06-21 23:00:00 21.8 0 Calma 6 Oeste -- 1019.1 -- 78
2020-06-21 22:00:00 21.7 3 Sudoeste 9 Sudoeste -- 1018.7 -- 77
2020-06-21 21:00:00 22.5 5 Sudoeste 12 Oeste -- 1017.9 -- 76
2020-06-21 20:00:00 23.6 4 Sudoeste 15 Oeste -- 1017.2 -- 73
2020-06-21 19:00:00 22.7 9 Sudoeste 19 Sudoeste -- 1017.9 -- 77
2020-06-21 18:00:00 22.5 12 Sudoeste 22 Sudoeste -- 1018.4 -- 78
2020-06-21 17:00:00 23.5 10 Sudoeste 21 Sudoeste -- 1018.5 -- 73
2020-06-21 16:00:00 23.7 9 Sudoeste 16 Sudoeste -- 1019.1 -- 73
2020-06-21 15:00:00 23.9 7 Sudoeste 15 Sudoeste -- 1019.5 -- 72
2020-06-21 14:00:00 24.2 5 Sur 14 Sudoeste -- 1020.2 -- 70
2020-06-21 13:00:00 23.8 6 Sudoeste 13 Sudoeste -- 1020.6 -- 68
2020-06-21 12:00:00 24.7 2 Sudoeste 9 Sur -- 1020.1 -- 66
2020-06-21 11:00:00 23.7 2 Sur 5 Sur -- 1019.9 -- 67
2020-06-21 10:00:00 23 2 Sur 4 Sur -- 1020.1 -- 71
2020-06-21 09:00:00 22.1 0 Calma 6 Sudoeste -- 1019.8 -- 77
2020-06-21 08:00:00 20 0 Calma 3 Sudoeste -- 1020.1 -- 92
2020-06-21 07:00:00 18.1 0 Calma 2 Noroeste -- 1020.6 -- 94
2020-06-21 06:00:00 18.7 0 Calma 3 Sudoeste -- 1020.2 -- 95
2020-06-21 05:00:00 18.8 0 Calma 5 Sur -- 1020.5 -- 95
2020-06-21 04:00:00 18.8 0 Calma 2 Sur -- 1020.6 -- 95
2020-06-21 03:00:00 19.2 0 Calma 3 Sudeste -- 1021.2 -- 94
2020-06-21 02:00:00 19.5 2 Sudeste 6 Sudeste -- 1021.4 -- 93
2020-06-21 01:00:00 19.9 0 Calma 9 Sudoeste -- 1021.4 -- 88
2020-06-21 00:00:00 20.1 6 Oeste 12 Sudoeste -- 1021.2 -- 86
2020-06-20 23:00:00 20 9 Sudoeste 13 Oeste -- 1020.7 -- 84
2020-06-20 22:00:00 19.9 9 Oeste 16 Oeste -- 1020.2 -- 93
2020-06-20 21:00:00 20.5 10 Oeste 16 Oeste -- 1019.7 -- 92
2020-06-20 20:00:00 21.7 10 Oeste 14 Oeste -- 1019.2 -- 85
2020-06-20 19:00:00 22.8 7 Sudoeste 13 Sudoeste -- 1018.7 -- 77
2020-06-20 18:00:00 23.6 7 Sudoeste 13 Sudoeste -- 1018.9 -- 73
2020-06-20 17:00:00 23.6 6 Sudoeste 12 Sudoeste -- 1019.2 -- 72
2020-06-20 16:00:00 23.5 4 Sudeste 11 Sudeste -- 1019.6 -- 73
2020-06-20 15:00:00 24.1 3 Sudeste 9 Sur -- 1019.1 -- 68
2020-06-20 14:00:00 23.5 5 Sur 9 Sur -- 1020 -- 71
2020-06-20 13:00:00 23.5 4 Sudeste 8 Sudeste -- 1020.4 -- 71
2020-06-20 12:00:00 23.7 3 Sudeste 7 Sudeste -- 1020.6 -- 66
2020-06-20 11:00:00 23.2 3 Sudoeste 8 Sudoeste -- 1020.6 -- 74
2020-06-20 10:00:00 23.2 0 Calma 9 Sudeste -- 1020.1 -- 76
2020-06-20 09:00:00 21.5 6 Sudeste 20 Este -- 1020.2 -- 71
2020-06-20 08:00:00 21.2 4 Este 14 Este -- 1019.3 -- 61
2020-06-20 07:00:00 18.4 0 Calma 6 Norte -- 1020.1 -- 82
2020-06-20 06:00:00 18.6 0 Calma 4 Sudeste -- 1020.4 -- 86
2020-06-20 05:00:00 18.9 0 Calma 10 Este -- 1020 -- 92
2020-06-20 04:00:00 19.1 4 Este 11 Este -- 1020.1 -- 93
2020-06-20 03:00:00 19.1 4 Este 8 Nordeste -- 1020.6 -- 94
2020-06-20 02:00:00 19 2 Sudeste 5 Sudoeste -- 1020.7 -- 93
2020-06-20 01:00:00 19.3 2 Sur 4 Sur -- 1020.7 -- 92
2020-06-20 00:00:00 19.7 0 Calma 5 Sudoeste -- 1020.3 -- 89
2020-06-19 23:00:00 20.2 2 Sudoeste 6 Sudeste -- 1020.2 -- 86
2020-06-19 22:00:00 20.8 3 Sudeste 5 Sur -- 1019.4 -- 77
2020-06-19 21:00:00 23.4 0 Calma 10 Sudoeste -- 1017.7 -- 61
2020-06-19 20:00:00 23.1 4 Sudoeste 11 Sudoeste -- 1017.1 -- 67
2020-06-19 19:00:00 23.6 7 Sudoeste 15 Sudoeste -- 1016.8 -- 60
2020-06-19 18:00:00 21.5 11 Oeste 20 Oeste -- 1017.2 -- 77
2020-06-19 17:00:00 21.7 10 Sudoeste 18 Oeste -- 1017 -- 77
2020-06-19 16:00:00 22.3 10 Sudoeste 18 Sudoeste -- 1017.4 -- 73
2020-06-19 15:00:00 24 5 Sudoeste 13 Sudoeste -- 1016.8 -- 63
2020-06-19 14:00:00 23 5 Sudoeste 13 Sudoeste -- 1017.3 -- 70
2020-06-19 13:00:00 22.3 5 Sur 10 Sudeste -- 1017.5 -- 73
2020-06-19 12:00:00 21.2 6 Sudeste 10 Sur -- 1017.6 -- 78
2020-06-19 11:00:00 23 0 Calma 7 Sudeste -- 1016.6 -- 73
2020-06-19 10:00:00 21.1 4 Sudeste 7 Sudeste -- 1017 -- 79
2020-06-19 09:00:00 19.6 4 Sudeste 11 Sudeste -- 1016.9 -- 90
2020-06-19 08:00:00 19.5 3 Este 9 Este -- 1016.7 -- 94
2020-06-19 07:00:00 19.2 3 Este 10 Este -- 1016.7 -- 95
2020-06-19 06:00:00 18.9 0 Calma 6 Este -- 1016.4 -- 95
2020-06-19 05:00:00 18.7 3 Oeste 7 Sudoeste -- 1016.2 -- 94
2020-06-19 04:00:00 19.2 5 Sudeste 15 Sudeste -- 1015.7 -- 93
2020-06-19 03:00:00 20.9 9 Sudeste 18 Sudeste -- 1015.8 -- 81
2020-06-19 02:00:00 20.2 5 Nordeste 13 Norte -- 1016.1 -- 87
2020-06-19 01:00:00 19.6 0 Calma 12 Sudoeste -- 1016.6 -- 92
2020-06-19 00:00:00 19.4 7 Oeste 14 Sur -- 1016.2 -- 92
2020-06-18 23:00:00 19.7 2 Oeste 15 Sudoeste -- 1014.9 -- 91
2020-06-18 22:00:00 20.6 0 Calma 10 Sur -- 1013 -- 87
2020-06-18 21:00:00 21.5 6 Sudoeste 16 Sudoeste -- 1011.9 -- 81
2020-06-18 20:00:00 22.4 7 Sudoeste 14 Sudoeste -- 1011.7 -- 72
2020-06-18 19:00:00 24.2 3 Sur 10 Sur -- 1010.8 -- 67
2020-06-18 18:00:00 24.1 5 Sur 11 Sur -- 1012.2 -- 66
2020-06-18 17:00:00 25 4 Sudoeste 10 Sudoeste -- 1011.7 -- 62
2020-06-18 16:00:00 23.9 3 Sudeste 8 Sudeste -- 1011.3 -- 66
2020-06-18 15:00:00 23.8 4 Sudeste 10 Sudoeste -- 1011.4 -- 66
2020-06-18 14:00:00 22.6 6 Sudoeste 10 Sudoeste -- 1012.8 -- 73
2020-06-18 13:00:00 21.9 5 Sudeste 9 Sur -- 1012.6 -- 73
2020-06-18 12:00:00 23.5 2 Sur 8 Sur -- 1012.6 -- 70
2020-06-18 11:00:00 22.6 0 Calma 5 Sudeste -- 1012.2 -- 72
2020-06-18 10:00:00 21.8 0 Calma 11 Sudeste -- 1012.3 -- 79
2020-06-18 09:00:00 20.4 0 Calma 7 Sudeste -- 1012.4 -- 88
2020-06-18 08:00:00 18.7 0 Calma 8 Norte -- 1012.8 -- 94
2020-06-18 07:00:00 18.1 3 Este 16 Este -- 1013.2 -- 93
2020-06-18 06:00:00 18.5 10 Este 23 Este -- 1012.5 -- 92
2020-06-18 05:00:00 18.5 5 Este 15 Este -- 1012.2 -- 89
2020-06-18 04:00:00 18.7 6 Este 12 Nordeste -- 1012.2 -- 84
2020-06-18 03:00:00 18.5 4 Este 11 Nordeste -- 1012.7 -- 87
2020-06-18 02:00:00 18.1 2 Este 10 Nordeste -- 1013 -- 89
2020-06-18 01:00:00 18.1 4 Nordeste 9 Nordeste -- 1013.5 -- 89
2020-06-18 00:00:00 18.1 0 Calma 5 Sudeste -- 1013.8 -- 87
2020-06-17 23:00:00 18.8 2 Sudeste 10 Oeste -- 1013.8 -- 82
2020-06-17 22:00:00 19.4 6 Sudoeste 22 Oeste -- 1013 -- 80
2020-06-17 21:00:00 20.1 12 Oeste 24 Sudoeste -- 1011.7 -- 77
2020-06-17 20:00:00 20.7 16 Oeste 25 Sudoeste -- 1011.2 -- 75
2020-06-17 19:00:00 20.7 18 Oeste 27 Oeste -- 1011.7 -- 76
2020-06-17 18:00:00 20.2 17 Oeste 28 Oeste -- 1012.6 -- 81
2020-06-17 17:00:00 20.4 14 Oeste 23 Oeste -- 1013.1 -- 81
2020-06-17 16:00:00 20.2 14 Oeste 21 Oeste -- 1013.6 -- 79
2020-06-17 15:00:00 25.4 4 Sudoeste 14 Sudoeste -- 1012.8 -- 52
2020-06-17 14:00:00 22.7 8 Oeste 13 Sudoeste -- 1014.3 -- 63
2020-06-17 13:00:00 20.8 8 Sudoeste 15 Oeste -- 1014.8 -- 76
2020-06-17 12:00:00 20 9 Sudoeste 15 Sudoeste -- 1015.2 -- 77
2020-06-17 11:00:00 20.6 5 Sudoeste 10 Oeste -- 1015.1 -- 73
2020-06-17 10:00:00 21.5 0 Calma 8 Sudoeste -- 1014.1 -- 75
2020-06-17 09:00:00 20.1 0 Calma 14 Oeste -- 1014.4 -- 82
2020-06-17 08:00:00 17.2 7 Oeste 18 Oeste -- 1015.1 -- 92
2020-06-17 07:00:00 16.6 8 Oeste 13 Sudoeste -- 1015 -- 91
2020-06-17 06:00:00 17.2 8 Oeste 19 Nordeste -- 1014.9 -- 88
2020-06-17 05:00:00 18 6 Este 14 Este -- 1014.8 -- 86
2020-06-17 04:00:00 18 7 Este 19 Este -- 1014.8 -- 84
2020-06-17 03:00:00 18.5 6 Este 14 Este -- 1015 -- 80
2020-06-17 02:00:00 18.7 3 Nordeste 8 Nordeste -- 1015.3 -- 81
2020-06-17 01:00:00 16.9 0 Calma 4 Nordeste -- 1015.8 -- 89
2020-06-17 00:00:00 17.6 0 Calma 13 Oeste -- 1015.9 -- 83
2020-06-16 23:00:00 18.3 10 Oeste 33 Oeste -- 1015.5 -- 80
2020-06-16 22:00:00 18.9 19 Oeste 36 Oeste -- 1014.6 -- 75
2020-06-16 21:00:00 19.5 24 Oeste 44 Oeste -- 1013.9 -- 71
2020-06-16 20:00:00 19.7 26 Oeste 54 Oeste -- 1013.4 -- 71
2020-06-16 19:00:00 20 22 Oeste 41 Oeste -- 1013.2 -- 67
2020-06-16 18:00:00 20.3 30 Oeste 52 Sudoeste -- 1013.4 -- 67
2020-06-16 17:00:00 20.6 31 Oeste 52 Oeste -- 1014.4 -- 66
2020-06-16 16:00:00 21 21 Sudoeste 43 Oeste -- 1014.7 -- 66
2020-06-16 15:00:00 21.1 28 Oeste 42 Oeste -- 1015.7 -- 63
2020-06-16 14:00:00 21 7 Sudoeste 18 Sudoeste -- 1016.1 -- 68
2020-06-16 13:00:00 20.5 5 Sudoeste 18 Este -- 1016.1 -- 72
2020-06-16 12:00:00 21.7 8 Este 21 Este -- 1016.2 -- 68
2020-06-16 11:00:00 20.9 8 Este 18 Este -- 1016.3 -- 70
2020-06-16 10:00:00 19.7 11 Este 19 Sudeste -- 1017.1 -- 76
2020-06-16 09:00:00 18.8 7 Sudeste 12 Sudeste -- 1016.7 -- 83
2020-06-16 08:00:00 18.4 5 Este 14 Nordeste -- 1016.9 -- 83
2020-06-16 07:00:00 17 2 Sudeste 6 Sudoeste -- 1017.2 -- 88
2020-06-16 06:00:00 17.7 2 Sudeste 9 Oeste -- 1016.7 -- 86
2020-06-16 05:00:00 18.1 0 Calma 7 Sudeste -- 1017.1 -- 83
2020-06-16 04:00:00 18.4 4 Este 14 Este -- 1016.8 -- 81
2020-06-16 03:00:00 17.8 0 Calma 6 Este -- 1017.4 -- 86
2020-06-16 02:00:00 17.5 0 Calma 4 Sudoeste -- 1017.9 -- 83
2020-06-16 01:00:00 17.8 2 Oeste 8 Sudoeste -- 1018.3 -- 78
2020-06-16 00:00:00 18.9 5 Oeste 10 Sudoeste -- 1018.1 -- 73
2020-06-15 23:00:00 20.1 0 Calma 5 Sudeste -- 1018.1 -- 70
2020-06-15 22:00:00 19.8 0 Calma 6 Sudoeste -- 1017.8 -- 70
2020-06-15 21:00:00 20.2 0 Calma 23 Oeste -- 1017.2 -- 71
2020-06-15 20:00:00 19.5 15 Oeste 26 Oeste -- 1017.6 -- 73
2020-06-15 19:00:00 20.2 11 Oeste 23 Sudoeste -- 1017.2 -- 71
2020-06-15 18:00:00 19.6 15 Oeste 36 Oeste -- 1018 -- 73
2020-06-15 17:00:00 20.2 21 Oeste 32 Sudoeste -- 1018.3 -- 68
2020-06-15 16:00:00 21.1 12 Sudoeste 26 Sudoeste -- 1018.3 -- 66
2020-06-15 15:00:00 19.8 15 Sudoeste 23 Sudoeste -- 1019.5 -- 73
2020-06-15 14:00:00 20.9 4 Sur 15 Sudoeste -- 1020.1 -- 72
2020-06-15 13:00:00 19.5 7 Sudoeste 15 Sudoeste -- 1020.8 -- 77
2020-06-15 12:00:00 19.6 6 Sudoeste 13 Sudoeste -- 1020.8 -- 72
2020-06-15 11:00:00 18 7 Sudeste 10 Sudeste -- 1020.7 -- 81
2020-06-15 10:00:00 19.3 4 Sudeste 6 Sudeste -- 1020.2 -- 73
2020-06-15 09:00:00 19.4 0 Calma 6 Sudeste -- 1019.8 -- 78
2020-06-15 08:00:00 16.4 0 Calma 6 Oeste -- 1020.1 -- 93
2020-06-15 07:00:00 15.4 3 Oeste 8 Oeste -- 1020.5 -- 93
2020-06-15 06:00:00 15.6 5 Oeste 9 Nordeste -- 1019.9 -- 91
2020-06-15 05:00:00 16.5 3 Nordeste 9 Este -- 1019.4 -- 89
2020-06-15 04:00:00 16.3 3 Este 9 Este -- 1019.7 -- 89
2020-06-15 03:00:00 16.6 5 Nordeste 10 Este -- 1019.5 -- 89
2020-06-15 02:00:00 16.3 0 Calma 6 Noroeste -- 1020.2 -- 88
2020-06-15 01:00:00 17 0 Calma 12 Oeste -- 1019.9 -- 82
2020-06-15 00:00:00 17.3 7 Oeste 13 Oeste -- 1019.3 -- 79
2020-06-14 23:00:00 18.7 0 Calma 19 Oeste -- 1018.5 -- 73
2020-06-14 22:00:00 18.3 13 Oeste 37 Sudoeste -- 1018.1 -- 73
2020-06-14 21:00:00 19.6 26 Oeste 42 Oeste -- 1017.6 -- 66
2020-06-14 20:00:00 19.2 26 Oeste 49 Oeste -- 1017.5 -- 70
2020-06-14 19:00:00 19.3 31 Oeste 49 Oeste -- 1016.8 -- 68
2020-06-14 18:00:00 19.4 30 Oeste 48 Oeste -- 1016.9 -- 71
2020-06-14 17:00:00 19.6 32 Oeste 51 Oeste -- 1017.3 -- 72
2020-06-14 16:00:00 19.4 29 Oeste 42 Oeste -- 1017.5 -- 72
2020-06-14 15:00:00 19.1 24 Sudoeste 41 Oeste -- 1017.9 -- 73
2020-06-14 14:00:00 18.7 18 Sudoeste 33 Sudoeste -- 1019 -- 77
2020-06-14 13:00:00 18.9 16 Oeste 29 Oeste -- 1019.3 -- 78
2020-06-14 12:00:00 18.2 11 Sudoeste 22 Oeste -- 1019.6 -- 81
2020-06-14 11:00:00 19 5 Sur 10 Sudeste -- 1018.2 -- 78
2020-06-14 10:00:00 19 4 Sur 12 Sudoeste -- 1018.3 -- 73
2020-06-14 09:00:00 17.4 0 Calma 18 Sudoeste -- 1018.3 -- 89
2020-06-14 08:00:00 17.6 5 Oeste 14 Sudoeste -- 1017.8 -- 73
2020-06-14 07:00:00 16.6 0 Calma 9 Nordeste -- 1017.1 -- 84
2020-06-14 06:00:00 16.3 5 Norte 16 Sur -- 1017.8 -- 89
2020-06-14 05:00:00 16.4 0 Calma 7 Este -- 1016.7 -- 82
2020-06-14 04:00:00 16.5 0 Calma 0 Calma -- 1017.5 -- 84
2020-06-14 03:00:00 17 0 Calma 9 Nordeste -- 1017.6 -- 79
2020-06-14 02:00:00 17.2 0 Calma 10 Sudeste -- 1017.8 -- 78
2020-06-14 01:00:00 18 4 Este 11 Este -- 1017.2 -- 73
2020-06-14 00:00:00 17.3 0 Calma 10 Oeste -- 1017.2 -- 73
2020-06-13 23:00:00 17.9 9 Oeste 22 Oeste -- 1016.8 -- 71
2020-06-13 22:00:00 19 10 Oeste 27 Oeste -- 1015.9 -- 62
2020-06-13 21:00:00 19.2 15 Oeste 34 Oeste -- 1015.3 -- 61
2020-06-13 20:00:00 19.8 21 Oeste 35 Oeste -- 1015 -- 56
2020-06-13 19:00:00 20.4 24 Oeste 41 Sudoeste -- 1014.7 -- 55
2020-06-13 18:00:00 20.1 27 Oeste 40 Oeste -- 1015 -- 59
2020-06-13 17:00:00 18.9 22 Oeste 36 Oeste -- 1015.6 -- 67
2020-06-13 16:00:00 18.9 20 Oeste 33 Oeste -- 1015.9 -- 65
2020-06-13 15:00:00 19.7 22 Oeste 35 Sudoeste -- 1015.6 -- 62
2020-06-13 14:00:00 18.5 18 Oeste 29 Sudoeste -- 1016.5 -- 71
2020-06-13 13:00:00 18 16 Oeste 27 Sudoeste -- 1016.7 -- 77
2020-06-13 12:00:00 19.7 6 Sudoeste 15 Sudoeste -- 1015.9 -- 61
2020-06-13 11:00:00 18.7 9 Oeste 17 Oeste -- 1015.8 -- 63
2020-06-13 10:00:00 21.7 4 Este 18 Sudeste -- 1014.3 -- 50
2020-06-13 09:00:00 20.3 3 Este 12 Este -- 1013.8 -- 53
2020-06-13 08:00:00 17.9 0 Calma 9 Sudoeste -- 1014 -- 66
2020-06-13 07:00:00 16.5 6 Sudoeste 16 Oeste -- 1014 -- 70
2020-06-13 06:00:00 17 12 Oeste 27 Sudoeste -- 1013.4 -- 66
2020-06-13 05:00:00 16.9 3 Noroeste 31 Oeste -- 1012.9 -- 66
2020-06-13 04:00:00 17.5 13 Oeste 25 Oeste -- 1012.6 -- 65
2020-06-13 03:00:00 17.1 13 Oeste 28 Oeste -- 1012 -- 75
2020-06-13 02:00:00 16.9 10 Oeste 35 Oeste -- 1012.2 -- 78
2020-06-13 01:00:00 16.8 17 Oeste 41 Oeste -- 1012.5 -- 80
2020-06-13 00:00:00 17.3 24 Oeste 44 Oeste -- 1012 -- 77
2020-06-12 23:00:00 17.3 23 Oeste 46 Oeste -- 1011.8 -- 80
2020-06-12 22:00:00 17.3 22 Oeste 44 Oeste -- 1010.8 -- 78
2020-06-12 21:00:00 18 24 Oeste 43 Oeste -- 1010.2 -- 76
2020-06-12 20:00:00 17.9 23 Oeste 44 Oeste -- 1009.4 -- 81
2020-06-12 19:00:00 18.3 22 Oeste 37 Oeste -- 1009 -- 76
2020-06-12 18:00:00 18.7 22 Oeste 37 Oeste -- 1008.7 -- 74
2020-06-12 17:00:00 18.4 16 Oeste 39 Sudoeste -- 1009 -- 77
2020-06-12 16:00:00 18.4 21 Oeste 38 Oeste -- 1009.3 -- 78
2020-06-12 15:00:00 18.1 23 Oeste 53 Oeste -- 1008.9 -- 78
2020-06-12 14:00:00 18.3 30 Oeste 48 Oeste -- 1008.7 -- 76
2020-06-12 13:00:00 18 21 Oeste 40 Oeste -- 1009.4 -- 79
2020-06-12 12:00:00 18.2 24 Oeste 43 Oeste -- 1009.2 -- 82
2020-06-12 11:00:00 17.1 22 Oeste 46 Oeste -- 1009.6 -- 92
2020-06-12 10:00:00 16.7 28 Oeste 47 Oeste -- 1009.5 -- 93
2020-06-12 09:00:00 16.4 27 Oeste 43 Oeste -- 1009.8 -- 94
2020-06-12 08:00:00 16.2 24 Oeste 42 Sudoeste -- 1009.1 -- 94
2020-06-12 07:00:00 15.9 25 Oeste 53 Oeste -- 1008.6 -- 97
2020-06-12 06:00:00 16.1 27 Oeste 45 Oeste -- 1008.6 -- 95
2020-06-12 05:00:00 16.3 23 Oeste 50 Sudoeste -- 1008.5 -- 94
2020-06-12 04:00:00 16.4 25 Oeste 47 Oeste -- 1007.8 -- 92
2020-06-12 03:00:00 17.4 34 Oeste 64 Sudoeste -- 1007.9 -- 86
2020-06-12 02:00:00 17.9 40 Oeste 65 Oeste -- 1007.9 -- 81
2020-06-12 01:00:00 17.4 28 Oeste 58 Oeste -- 1008.5 -- 82
2020-06-12 00:00:00 17.7 34 Oeste 55 Oeste -- 1008.2 -- 80
2020-06-11 23:00:00 17.9 28 Oeste 54 Oeste -- 1008.2 -- 78
2020-06-11 22:00:00 18.1 27 Oeste 57 Oeste -- 1007.6 -- 76
2020-06-11 21:00:00 18.3 33 Oeste 54 Oeste -- 1007.3 -- 77
2020-06-11 20:00:00 18.6 33 Oeste 62 Oeste -- 1007.3 -- 77
2020-06-11 19:00:00 19.1 36 Oeste 62 Oeste -- 1007.1 -- 73
2020-06-11 18:00:00 19 33 Oeste 60 Oeste -- 1007.3 -- 73
2020-06-11 17:00:00 19.4 33 Oeste 54 Oeste -- 1007.8 -- 71
2020-06-11 16:00:00 19.7 35 Oeste 53 Oeste -- 1008.2 -- 71
2020-06-11 15:00:00 19.4 31 Oeste 53 Oeste -- 1009 -- 73
2020-06-11 14:00:00 19.1 27 Oeste 51 Oeste -- 1010 -- 73
2020-06-11 13:00:00 19 28 Oeste 48 Sudoeste -- 1010.5 -- 77
2020-06-11 12:00:00 18.6 33 Oeste 56 Sudoeste -- 1010.7 -- 78
2020-06-11 11:00:00 18.3 27 Oeste 43 Oeste -- 1010.7 -- 82
2020-06-11 10:00:00 18 21 Oeste 31 Oeste -- 1011.2 -- 86
2020-06-11 09:00:00 18.7 8 Sudoeste 14 Oeste -- 1011 -- 83
2020-06-11 08:00:00 17.8 4 Sudoeste 15 Oeste -- 1011.3 -- 88
2020-06-11 07:00:00 17 10 Oeste 24 Sudoeste -- 1012 -- 89
2020-06-11 06:00:00 17.8 14 Oeste 28 Oeste -- 1011.9 -- 84
2020-06-11 05:00:00 17.8 14 Oeste 22 Noroeste -- 1012.3 -- 86
2020-06-11 04:00:00 18.6 6 Noroeste 12 Oeste -- 1012.4 -- 82
2020-06-11 03:00:00 18.3 5 Oeste 7 Oeste -- 1012.8 -- 76
2020-06-11 02:00:00 19 0 Calma 5 Oeste -- 1013.5 -- 75
2020-06-11 01:00:00 19 0 Calma 18 Oeste -- 1013.9 -- 77
2020-06-11 00:00:00 19.4 9 Sudoeste 26 Oeste -- 1014.1 -- 77
2020-06-10 23:00:00 20.4 16 Oeste 26 Oeste -- 1013.1 -- 66
2020-06-10 22:00:00 19.9 13 Oeste 28 Oeste -- 1012.8 -- 72
2020-06-10 21:00:00 19.9 18 Oeste 28 Oeste -- 1012.5 -- 73
2020-06-10 20:00:00 21.1 13 Oeste 29 Sudoeste -- 1012.4 -- 63
2020-06-10 19:00:00 21.8 15 Oeste 31 Oeste -- 1012 -- 65
2020-06-10 18:00:00 20 13 Sudoeste 23 Oeste -- 1013 -- 87
2020-06-10 17:00:00 20.8 12 Oeste 18 Oeste -- 1014.1 -- 82
2020-06-10 16:00:00 21 10 Sudoeste 16 Sudoeste -- 1014.3 -- 78
2020-06-10 15:00:00 22.2 4 Sudoeste 10 Sudoeste -- 1014.4 -- 77
2020-06-10 14:00:00 22 2 Sur 9 Sudeste -- 1015 -- 76
2020-06-10 13:00:00 21.1 5 Sudeste 9 Sudeste -- 1015.2 -- 77
2020-06-10 12:00:00 21.7 4 Sudeste 9 Sudeste -- 1015.5 -- 78
2020-06-10 11:00:00 20.6 5 Sudeste 12 Este -- 1016 -- 81
2020-06-10 10:00:00 20 6 Sudeste 12 Sudeste -- 1015.9 -- 81
2020-06-10 09:00:00 21.2 5 Este 10 Este -- 1015.3 -- 61
2020-06-10 08:00:00 19 3 Este 6 Este -- 1015.6 -- 71
2020-06-10 07:00:00 17.9 0 Calma 6 Este -- 1015.8 -- 77
2020-06-10 06:00:00 17.3 0 Calma 4 Este -- 1015.9 -- 86
2020-06-10 05:00:00 17.3 0 Calma 2 Nordeste -- 1016.1 -- 89
2020-06-10 04:00:00 17.2 0 Calma 2 Sur -- 1016.5 -- 89
2020-06-10 03:00:00 18 0 Calma 4 Norte -- 1016.7 -- 88
2020-06-10 02:00:00 18.6 0 Calma 6 Norte -- 1017.1 -- 87
2020-06-10 01:00:00 18.6 3 Este 8 Sudeste -- 1017.3 -- 89
2020-06-10 00:00:00 18.6 5 Este 10 Nordeste -- 1017 -- 87
2020-06-09 23:00:00 18.8 0 Calma 5 Sudoeste -- 1016.4 -- 81
2020-06-09 22:00:00 19.1 3 Sudoeste 9 Sudoeste -- 1015.5 -- 78
2020-06-09 21:00:00 19.5 8 Oeste 11 Oeste -- 1015.2 -- 77
2020-06-09 20:00:00 20.2 7 Oeste 18 Oeste -- 1014.6 -- 73
2020-06-09 19:00:00 19.8 9 Oeste 21 Sudoeste -- 1014.6 -- 82
2020-06-09 18:00:00 20.7 10 Oeste 17 Sudoeste -- 1015.2 -- 78
2020-06-09 17:00:00 21.2 10 Sudoeste 16 Sudoeste -- 1015.4 -- 72
2020-06-09 16:00:00 24.2 4 Sudoeste 12 Sudoeste -- 1014.7 -- 60
2020-06-09 15:00:00 23.4 3 Sudoeste 19 Sudoeste -- 1015.1 -- 65
2020-06-09 14:00:00 23.7 0 Calma 8 Sur -- 1015.6 -- 63
2020-06-09 13:00:00 22.5 3 Sur 7 Sur -- 1016.2 -- 67
2020-06-09 12:00:00 22.3 2 Sudeste 6 Sudeste -- 1015.9 -- 67
2020-06-09 11:00:00 20.5 4 Sudeste 12 Sudeste -- 1016.2 -- 75
2020-06-09 10:00:00 19.5 8 Sudeste 17 Sudeste -- 1016.5 -- 76
2020-06-09 09:00:00 20.4 3 Nordeste 13 Norte -- 1015.9 -- 71
2020-06-09 08:00:00 18.9 4 Nordeste 13 Nordeste -- 1016.2 -- 76
2020-06-09 07:00:00 17.1 5 Este 14 Este -- 1016.2 -- 77
2020-06-09 06:00:00 17.3 3 Nordeste 10 Norte -- 1015.9 -- 84
2020-06-09 05:00:00 16.7 3 Nordeste 6 Nordeste -- 1015.8 -- 88
2020-06-09 04:00:00 17.2 0 Calma 8 Este -- 1015.8 -- 81
2020-06-09 03:00:00 18 0 Calma 10 Norte -- 1015.9 -- 78
2020-06-09 02:00:00 18.9 5 Norte 20 Norte -- 1015.8 -- 76
2020-06-09 01:00:00 17.5 8 Este 20 Este -- 1015.9 -- 84
2020-06-09 00:00:00 17.8 6 Este 17 Este -- 1015.9 -- 81